Time;durP1;ratioP1;P1;durP2;ratioP2;P2;SDS_P1;SDS_P2;PMS_P1;PMS_P2;Temp;Humidity;BMP_temperature;BMP_pressure;BME280_temperature;BME280_humidity;BME280_pressure;Samples;Min_cycle;Max_cycle;Signal;HPM_P1;HPM_P2
2023/03/22 00:01:59;;;;;;;4.10;3.50;;;;;;;14.61;61.79;94292.63;5005772;28;20190;-47
2023/03/22 00:04:26;;;;;;;3.70;3.13;;;;;;;14.62;61.73;94291.66;5006285;28;20266;-47
2023/03/22 00:06:55;;;;;;;3.70;3.40;;;;;;;14.58;61.85;94287.81;5011055;28;20597;-46
2023/03/22 00:09:21;;;;;;;3.43;2.90;;;;;;;14.60;61.77;94289.25;5010743;28;20529;-47
2023/03/22 00:11:49;;;;;;;3.20;2.90;;;;;;;14.60;61.85;94288.47;5010100;28;20687;-49
2023/03/22 00:14:17;;;;;;;3.20;2.90;;;;;;;14.59;61.79;94287.63;5000655;28;20221;-47
2023/03/22 00:16:45;;;;;;;3.07;2.77;;;;;;;14.57;61.88;94283.66;4991502;28;20703;-47
2023/03/22 00:19:11;;;;;;;3.17;2.90;;;;;;;14.56;61.88;94285.44;4991498;28;20220;-47
2023/03/22 00:21:38;;;;;;;3.57;3.23;;;;;;;14.55;61.91;94291.56;4991126;28;20290;-46
2023/03/22 00:24:07;;;;;;;4.53;2.83;;;;;;;14.54;62.07;94288.16;4993569;28;20201;-47
2023/03/22 00:26:34;;;;;;;3.43;3.13;;;;;;;14.53;61.81;94285.78;5010713;28;20192;-48
2023/03/22 00:29:01;;;;;;;3.43;3.10;;;;;;;14.53;61.81;94285.78;5010461;28;20553;-47
2023/03/22 00:31:28;;;;;;;3.20;2.90;;;;;;;14.52;61.94;94281.59;5010396;28;20196;-49
2023/03/22 00:33:55;;;;;;;3.20;2.90;;;;;;;14.51;62.04;94280.00;5009450;28;20188;-47
2023/03/22 00:36:21;;;;;;;4.97;2.83;;;;;;;14.50;61.80;94275.81;5008342;28;20220;-48
2023/03/22 00:38:48;;;;;;;3.23;2.90;;;;;;;14.44;62.30;94272.13;5009899;28;20200;-50
2023/03/22 00:41:18;;;;;;;3.07;2.87;;;;;;;14.47;62.24;94274.38;5009887;28;20255;-48
2023/03/22 00:43:46;;;;;;;3.37;3.07;;;;;;;14.46;62.00;94275.31;5010048;28;20203;-51
2023/03/22 00:46:14;;;;;;;3.03;2.77;;;;;;;14.45;62.05;94278.06;5000523;28;20189;-50
2023/03/22 00:48:41;;;;;;;3.07;2.77;;;;;;;14.45;62.19;94268.59;4993398;28;20189;-48
2023/03/22 00:51:09;;;;;;;3.43;2.97;;;;;;;14.44;61.94;94267.00;5010091;28;20188;-47
2023/03/22 00:53:36;;;;;;;3.83;2.77;;;;;;;14.44;62.39;94273.91;5010527;28;20200;-48
2023/03/22 00:56:03;;;;;;;3.30;3.00;;;;;;;14.43;62.24;94269.75;5010201;28;20274;-49
2023/03/22 00:58:32;;;;;;;2.73;2.53;;;;;;;14.42;62.39;94268.13;5009116;28;20197;-47
2023/03/22 01:00:59;;;;;;;3.30;3.00;;;;;;;14.42;62.25;94270.69;5007327;28;20680;-48
2023/03/22 01:03:25;;;;;;;3.33;2.77;;;;;;;14.41;62.28;94269.09;5008464;28;20274;-47
2023/03/22 01:05:55;;;;;;;3.27;2.97;;;;;;;14.39;62.24;94274.41;5010021;28;20192;-48
2023/03/22 01:08:22;;;;;;;3.53;2.87;;;;;;;14.38;62.50;94262.53;5009372;28;20869;-48
2023/03/22 01:10:49;;;;;;;3.20;2.90;;;;;;;14.35;62.60;94257.72;5008387;28;20184;-49
2023/03/22 01:13:16;;;;;;;4.60;3.23;;;;;;;14.38;62.58;94265.13;4989803;28;20218;-47
2023/03/22 01:15:46;;;;;;;3.60;3.00;;;;;;;14.36;62.61;94264.47;4990079;28;20681;-49
2023/03/22 01:18:13;;;;;;;4.93;3.30;;;;;;;14.37;62.60;94260.13;4989782;28;20181;-47
2023/03/22 01:20:40;;;;;;;3.73;3.20;;;;;;;14.36;62.52;94259.31;4991197;28;20220;-46
2023/03/22 01:23:07;;;;;;;3.47;3.17;;;;;;;14.36;62.54;94255.94;4990056;28;20193;-47
2023/03/22 01:25:33;;;;;;;3.67;3.37;;;;;;;14.33;62.57;94259.66;4990418;28;20191;-47
2023/03/22 01:28:01;;;;;;;3.50;3.20;;;;;;;14.30;62.64;94249.72;4988500;28;20185;-47
2023/03/22 01:30:28;;;;;;;4.40;3.80;;;;;;;14.35;62.68;94254.34;4990128;28;20275;-48
2023/03/22 01:32:56;;;;;;;3.70;3.40;;;;;;;14.32;62.75;94250.34;4997147;28;20181;-46
2023/03/22 01:35:23;;;;;;;3.13;2.83;;;;;;;14.32;62.63;94253.72;5009597;28;20247;-47
2023/03/22 01:37:50;;;;;;;3.47;3.17;;;;;;;14.30;62.82;94242.81;5009406;28;20609;-46
2023/03/22 01:40:17;;;;;;;3.23;3.03;;;;;;;14.28;63.01;94242.16;5007473;28;20676;-48
2023/03/22 01:42:44;;;;;;;3.70;3.40;;;;;;;14.29;62.97;94248.94;4997312;28;20193;-48
2023/03/22 01:45:39;;;;;;;3.23;2.93;;;;;;;14.29;62.91;94248.09;4989762;28;20196;-47
2023/03/22 01:48:14;;;;;;;3.87;3.33;;;;;;;14.27;62.91;94239.78;4989817;28;20518;-45
2023/03/22 01:50:44;;;;;;;3.20;2.90;;;;;;;14.26;62.87;94246.69;4990268;28;20258;-46
2023/03/22 01:53:13;;;;;;;4.00;3.17;;;;;;;14.26;62.96;94238.97;4998838;28;20211;-48
2023/03/22 01:55:41;;;;;;;4.57;3.73;;;;;;;14.26;62.89;94243.31;5009164;28;20224;-49
2023/03/22 01:58:08;;;;;;;3.63;3.33;;;;;;;14.25;62.84;94239.16;5008718;28;20187;-46
2023/03/22 02:00:36;;;;;;;3.70;3.40;;;;;;;14.23;63.06;94244.44;5008997;28;20212;-47
2023/03/22 02:03:04;;;;;;;3.60;3.30;;;;;;;14.20;62.83;94241.41;4998759;28;20596;-46
2023/03/22 02:05:34;;;;;;;3.73;3.40;;;;;;;14.24;63.18;94247.81;5008386;28;20200;-48
2023/03/22 02:08:03;;;;;;;3.60;3.30;;;;;;;14.22;62.95;94236.91;5009068;28;20199;-47
2023/03/22 02:10:30;;;;;;;3.90;3.50;;;;;;;14.21;63.24;94237.91;5008755;28;20745;-48
2023/03/22 02:13:20;;;;;;;3.63;3.20;;;;;;;14.21;62.93;94241.28;5007822;28;20192;-46
2023/03/22 02:15:55;;;;;;;3.60;3.10;;;;;;;14.14;63.04;94232.63;4995231;28;20777;-46
2023/03/22 02:18:40;;;;;;;3.77;3.47;;;;;;;14.18;63.01;94241.59;5008652;28;20203;-47
2023/03/22 02:22:01;;;;;;;3.50;3.20;;;;;;;14.02;63.18;94221.13;5008494;28;20188;-47
2023/03/22 02:25:06;;;;;;;3.57;3.13;;;;;;;14.15;63.28;94239.38;4942245;29;20191;-47
2023/03/22 02:28:05;;;;;;;3.10;2.90;;;;;;;14.12;63.31;94241.47;4929178;28;20290;-46
2023/03/22 02:31:00;;;;;;;3.53;3.23;;;;;;;14.10;63.53;94246.78;4872597;29;20201;-46
2023/03/22 02:33:59;;;;;;;3.37;3.07;;;;;;;14.09;63.50;94245.19;4873027;29;20196;-47
2023/03/22 02:36:41;;;;;;;3.70;3.40;;;;;;;14.08;63.50;94248.75;4816558;29;20751;-48
2023/03/22 02:39:15;;;;;;;3.97;2.90;;;;;;;14.06;63.29;94248.09;4817469;29;20556;-47
2023/03/22 02:42:02;;;;;;;3.00;2.77;;;;;;;14.06;63.67;94253.25;4817317;29;20202;-47
2023/03/22 02:44:40;;;;;;;3.40;3.10;;;;;;;14.05;63.40;94257.59;4816004;29;20219;-47
2023/03/22 02:47:15;;;;;;;3.47;3.13;;;;;;;14.05;63.12;94265.28;4804133;29;20211;-47
2023/03/22 02:49:48;;;;;;;3.60;3.30;;;;;;;14.03;63.63;94256.97;4799387;29;20195;-49
2023/03/22 02:52:19;;;;;;;3.33;3.03;;;;;;;14.04;63.42;94262.91;4799079;29;20688;-48
2023/03/22 02:54:53;;;;;;;2.70;2.50;;;;;;;14.01;63.57;94252.94;4798893;29;20199;-47
2023/03/22 02:57:26;;;;;;;2.80;2.60;;;;;;;14.00;63.27;94265.00;4798972;29;20192;-47
2023/03/22 02:59:55;;;;;;;2.83;2.40;;;;;;;14.03;63.33;94264.69;4814118;29;20213;-47
2023/03/22 03:02:23;;;;;;;3.50;2.90;;;;;;;14.03;63.47;94259.53;4835359;29;20572;-47
2023/03/22 03:04:52;;;;;;;4.10;3.30;;;;;;;14.02;63.49;94259.69;4836590;29;20198;-48
2023/03/22 03:07:23;;;;;;;2.60;2.40;;;;;;;14.03;63.67;94264.69;4882951;29;20676;-48
2023/03/22 03:09:52;;;;;;;2.80;2.60;;;;;;;14.04;63.68;94262.91;4932259;29;20194;-47
2023/03/22 03:12:23;;;;;;;2.60;2.40;;;;;;;14.02;63.45;94255.34;4932292;29;20718;-46
2023/03/22 03:14:50;;;;;;;3.07;2.77;;;;;;;14.03;63.55;94269.00;4988662;28;20676;-47
2023/03/22 03:17:38;;;;;;;5.43;3.03;;;;;;;14.02;63.55;94263.06;5000689;28;20201;-47
2023/03/22 03:20:22;;;;;;;2.70;2.50;;;;;;;14.01;63.55;94261.47;4992685;28;20201;-47
2023/03/22 03:23:02;;;;;;;2.90;2.70;;;;;;;14.01;63.64;94264.03;4992148;28;20201;-50
2023/03/22 03:25:42;;;;;;;2.93;2.70;;;;;;;14.01;63.67;94263.25;5004672;28;20273;-48
2023/03/22 03:28:15;;;;;;;2.97;2.67;;;;;;;14.00;63.76;94265.00;5011538;28;20753;-47
2023/03/22 03:30:49;;;;;;;2.77;2.57;;;;;;;14.01;63.69;94269.19;5011480;28;20274;-48
2023/03/22 03:33:19;;;;;;;3.07;2.83;;;;;;;14.01;63.71;94271.75;5011699;28;20197;-47
2023/03/22 03:35:52;;;;;;;3.37;2.77;;;;;;;14.02;63.78;94272.53;5008941;28;20284;-47
2023/03/22 03:38:24;;;;;;;2.87;2.60;;;;;;;14.00;63.86;94270.16;4992018;28;20197;-49
2023/03/22 03:40:57;;;;;;;3.60;2.77;;;;;;;13.98;63.82;94271.28;4991932;28;20622;-47
2023/03/22 03:43:26;;;;;;;3.00;2.80;;;;;;;14.00;63.82;94272.72;4991534;28;20193;-47
2023/03/22 03:45:54;;;;;;;2.67;2.47;;;;;;;14.01;63.87;94269.19;4992901;28;20221;-47
2023/03/22 03:48:26;;;;;;;3.00;2.43;;;;;;;14.01;63.82;94276.88;5005465;28;20192;-48
2023/03/22 03:50:56;;;;;;;2.90;2.60;;;;;;;14.01;63.90;94286.38;5009133;28;20819;-46
2023/03/22 03:53:23;;;;;;;2.87;2.57;;;;;;;14.01;63.75;94286.38;4993817;28;20211;-47
2023/03/22 03:55:50;;;;;;;3.07;2.80;;;;;;;14.00;63.90;94279.63;4991680;28;20229;-48
2023/03/22 03:58:18;;;;;;;3.10;2.80;;;;;;;14.01;63.65;94279.47;4991578;28;20193;-47
2023/03/22 04:00:46;;;;;;;2.80;2.47;;;;;;;14.00;63.84;94285.56;4998980;28;20263;-47
2023/03/22 04:03:14;;;;;;;2.90;2.60;;;;;;;13.94;63.99;94275.94;5011139;28;20271;-48
2023/03/22 04:05:41;;;;;;;2.90;2.70;;;;;;;13.98;64.00;94281.56;5010829;28;20192;-47
2023/03/22 04:08:08;;;;;;;2.93;2.67;;;;;;;13.98;64.07;94287.50;5011155;28;20203;-47
2023/03/22 04:10:35;;;;;;;3.00;2.70;;;;;;;13.97;63.91;94296.19;5010499;28;20235;-46
2023/03/22 04:13:02;;;;;;;2.20;2.00;;;;;;;13.92;63.80;94280.47;5009154;28;20187;-49
2023/03/22 04:15:31;;;;;;;3.00;2.27;;;;;;;13.97;63.79;94295.41;5011208;28;20258;-48
2023/03/22 04:17:58;;;;;;;2.40;2.20;;;;;;;13.94;63.81;94290.56;5010765;28;20207;-47
2023/03/22 04:20:26;;;;;;;2.67;2.47;;;;;;;13.93;64.05;94287.22;5010898;28;20193;-48
2023/03/22 04:22:52;;;;;;;2.77;2.20;;;;;;;13.94;64.11;94295.72;5010992;28;20234;-49
2023/03/22 04:25:21;;;;;;;2.50;2.30;;;;;;;13.96;64.02;94288.66;5010972;28;20192;-47
2023/03/22 04:27:50;;;;;;;3.27;2.40;;;;;;;13.94;64.05;94291.38;5009765;28;20189;-46
2023/03/22 04:30:18;;;;;;;2.90;2.47;;;;;;;13.94;64.18;94295.72;5011100;28;20271;-47
2023/03/22 04:32:50;;;;;;;3.00;2.30;;;;;;;13.90;63.79;94286.75;4995251;28;20644;-48
2023/03/22 04:35:17;;;;;;;2.40;2.20;;;;;;;13.89;64.05;94293.66;4991707;28;20184;-49
2023/03/22 04:37:44;;;;;;;2.90;2.60;;;;;;;13.88;63.91;94286.91;4991225;28;20232;-47
2023/03/22 04:40:15;;;;;;;2.50;2.30;;;;;;;13.93;64.03;94294.13;4991355;28;20199;-47
2023/03/22 04:42:43;;;;;;;2.30;2.17;;;;;;;13.93;63.86;94305.19;4991510;28;20228;-48
2023/03/22 04:45:10;;;;;;;2.73;2.30;;;;;;;13.92;64.09;94303.63;4991381;28;20740;-47
2023/03/22 04:47:37;;;;;;;2.80;2.40;;;;;;;13.91;64.06;94302.00;4990948;28;20200;-49
2023/03/22 04:50:07;;;;;;;2.67;2.47;;;;;;;13.93;64.21;94307.78;4990855;28;20677;-48
2023/03/22 04:52:34;;;;;;;2.10;2.00;;;;;;;13.93;64.02;94309.56;4990579;28;20200;-47
2023/03/22 04:55:01;;;;;;;2.57;2.37;;;;;;;13.93;64.13;94312.91;4990548;28;20194;-51
2023/03/22 04:57:28;;;;;;;2.07;1.97;;;;;;;13.93;64.07;94312.13;5009459;28;20223;-49
2023/03/22 04:59:55;;;;;;;3.17;2.47;;;;;;;13.92;63.97;94313.88;5010178;28;20282;-49
2023/03/22 05:02:22;;;;;;;2.63;2.30;;;;;;;13.93;64.10;94324.97;5009602;28;20207;-46
2023/03/22 05:04:48;;;;;;;2.50;2.30;;;;;;;13.94;64.08;94318.84;5010203;28;20192;-49
2023/03/22 05:07:16;;;;;;;2.90;2.60;;;;;;;13.94;64.02;94322.22;5008901;28;20184;-45
2023/03/22 05:09:43;;;;;;;2.80;2.37;;;;;;;13.92;63.99;94313.09;5009433;28;20207;-46
2023/03/22 05:12:10;;;;;;;2.33;2.23;;;;;;;13.96;64.18;94324.66;4990217;28;20192;-46
2023/03/22 05:14:37;;;;;;;2.57;2.37;;;;;;;13.96;63.98;94322.88;4990110;28;20207;-49
2023/03/22 05:17:03;;;;;;;2.70;2.50;;;;;;;13.97;64.06;94327.03;4990290;28;20278;-48
2023/03/22 05:19:31;;;;;;;2.63;2.43;;;;;;;13.99;63.98;94324.31;4989981;28;20193;-48
2023/03/22 05:22:00;;;;;;;2.73;2.17;;;;;;;13.98;64.04;94325.25;5002022;28;20220;-47
2023/03/22 05:24:29;;;;;;;2.90;2.70;;;;;;;14.03;63.98;94336.66;5008381;28;20196;-47
2023/03/22 05:26:59;;;;;;;2.43;2.23;;;;;;;14.05;64.07;94336.50;5009661;28;20189;-48
2023/03/22 05:29:26;;;;;;;2.50;2.30;;;;;;;14.05;63.96;94344.22;5009032;28;20193;-48
2023/03/22 05:31:54;;;;;;;3.50;2.47;;;;;;;14.08;63.90;94336.16;5007779;28;20200;-49
2023/03/22 05:34:21;;;;;;;2.50;2.40;;;;;;;14.08;64.18;94333.59;5009437;28;20227;-46
2023/03/22 05:36:50;;;;;;;2.37;2.20;;;;;;;14.10;64.00;94341.94;5008584;28;20220;-48
2023/03/22 05:39:17;;;;;;;2.60;2.40;;;;;;;14.11;64.08;94342.72;5008973;28;20192;-46
2023/03/22 05:41:45;;;;;;;2.30;2.20;;;;;;;14.12;63.94;94339.19;5009236;28;20191;-46
2023/03/22 05:44:12;;;;;;;3.13;2.40;;;;;;;14.14;63.93;94343.19;5009308;28;20287;-46
2023/03/22 05:46:39;;;;;;;2.53;2.33;;;;;;;14.16;63.98;94343.84;5009224;28;20192;-47
2023/03/22 05:49:05;;;;;;;2.53;2.30;;;;;;;14.19;63.94;94345.25;5009174;28;20665;-46
2023/03/22 05:51:32;;;;;;;2.50;2.17;;;;;;;14.47;84.56;94333.53;4995594;28;20196;-45
2023/03/22 05:53:59;;;;;;;2.10;2.00;;;;;;;14.98;80.73;94348.50;4991043;28;20204;-47
2023/03/22 05:56:26;;;;;;;13.07;2.40;;;;;;;15.17;76.88;94357.53;5009318;28;20653;-46
2023/03/22 05:58:54;;;;;;;2.10;2.00;;;;;;;15.20;75.79;94359.78;5009170;28;20639;-46
2023/03/22 06:01:21;;;;;;;3.50;2.30;;;;;;;15.30;76.77;94355.97;5009278;28;20189;-46
2023/03/22 06:03:49;;;;;;;3.07;2.77;;;;;;;15.32;74.42;94340.31;5008595;28;20224;-45
2023/03/22 06:06:16;;;;;;;3.00;2.77;;;;;;;15.48;72.62;94354.84;5008568;28;20720;-45
2023/03/22 06:08:44;;;;;;;7.40;3.60;;;;;;;15.48;71.59;94363.34;5006868;28;20568;-45
2023/03/22 06:11:11;;;;;;;4.00;3.30;;;;;;;15.50;70.93;94369.16;4989937;28;20581;-45
2023/03/22 06:13:38;;;;;;;3.90;3.17;;;;;;;15.50;70.54;94363.19;4995996;28;20315;-46
2023/03/22 06:16:07;;;;;;;6.90;2.70;;;;;;;15.49;71.41;94367.53;5008689;28;20200;-45
2023/03/22 06:18:34;;;;;;;7.03;3.27;;;;;;;15.99;81.65;94363.50;5008786;28;20200;-46
2023/03/22 06:21:01;;;;;;;8.50;2.53;;;;;;;16.62;79.81;94366.41;5008471;28;20211;-46
2023/03/22 06:23:28;;;;;;;5.30;2.50;;;;;;;17.11;77.10;94365.75;5008493;28;20676;-47
2023/03/22 06:25:55;;;;;;;10.57;3.07;;;;;;;17.36;75.22;94375.66;5008739;28;20188;-46
2023/03/22 06:28:21;;;;;;;5.93;2.80;;;;;;;17.37;73.60;94372.13;5004146;28;20215;-47
2023/03/22 06:30:48;;;;;;;3.57;2.57;;;;;;;17.29;72.35;94373.84;5001674;28;20193;-47
2023/03/22 06:33:17;;;;;;;6.33;2.70;;;;;;;17.21;71.85;94380.91;5005678;28;20196;-47
2023/03/22 06:35:44;;;;;;;6.60;2.90;;;;;;;17.12;71.16;94382.84;4988386;28;20196;-49
2023/03/22 06:38:10;;;;;;;2.80;2.60;;;;;;;16.98;70.71;94365.63;4988938;28;20213;-48
2023/03/22 06:40:37;;;;;;;9.83;2.70;;;;;;;16.92;70.18;94380.06;4991008;28;20251;-48
2023/03/22 06:43:04;;;;;;;7.97;2.70;;;;;;;16.86;70.18;94385.16;5008796;28;20568;-48
2023/03/22 06:45:32;;;;;;;3.73;2.60;;;;;;;16.76;69.61;94391.44;5008739;28;20219;-47
2023/03/22 06:47:59;;;;;;;5.27;2.53;;;;;;;16.70;69.16;94386.97;5011946;28;20250;-48
2023/03/22 06:50:29;;;;;;;4.83;2.40;;;;;;;16.62;68.89;94394.81;5012513;28;20250;-48
2023/03/22 06:52:56;;;;;;;3.13;2.47;;;;;;;16.63;68.83;94386.09;5011886;28;20223;-48
2023/03/22 06:55:23;;;;;;;3.93;2.77;;;;;;;16.61;68.51;94392.41;5011638;28;20199;-48
2023/03/22 06:57:50;;;;;;;5.10;2.77;;;;;;;16.58;68.08;94393.59;5009238;28;20227;-48
2023/03/22 07:00:17;;;;;;;2.87;2.63;;;;;;;16.56;67.95;94393.75;5012257;28;20188;-48
2023/03/22 07:02:44;;;;;;;3.00;2.63;;;;;;;16.54;67.58;94395.75;5011398;28;20223;-47
2023/03/22 07:05:11;;;;;;;3.13;2.83;;;;;;;16.52;67.34;94408.00;4997958;28;20181;-47
2023/03/22 07:07:39;;;;;;;3.47;3.17;;;;;;;16.47;66.79;94394.84;4991906;28;20193;-47
2023/03/22 07:10:07;;;;;;;6.83;2.87;;;;;;;16.51;66.92;94408.19;4992620;28;20193;-48
2023/03/22 07:12:34;;;;;;;3.73;2.43;;;;;;;16.51;66.79;94408.19;5011491;28;20267;-47
2023/03/22 07:15:02;;;;;;;4.73;3.10;;;;;;;16.53;66.78;94414.78;5012101;28;20560;-50
2023/03/22 07:17:29;;;;;;;3.73;2.97;;;;;;;16.54;66.35;94411.22;5011385;28;20234;-48
2023/03/22 07:19:56;;;;;;;3.20;2.80;;;;;;;16.55;66.15;94415.41;5011201;28;20193;-48
2023/03/22 07:22:23;;;;;;;3.17;2.87;;;;;;;16.56;65.77;94411.03;4995965;28;20904;-49
2023/03/22 07:24:52;;;;;;;5.37;2.90;;;;;;;16.57;65.79;94420.38;5003004;28;20192;-48
2023/03/22 07:27:19;;;;;;;4.07;2.87;;;;;;;16.56;65.54;94421.38;4999573;28;20197;-48
2023/03/22 07:29:46;;;;;;;3.17;2.87;;;;;;;16.55;65.49;94425.72;5002451;28;20186;-48
2023/03/22 07:32:13;;;;;;;2.73;2.53;;;;;;;16.54;65.44;94424.13;5007573;28;20184;-49
2023/03/22 07:34:40;;;;;;;2.87;2.67;;;;;;;16.52;65.23;94431.25;5010354;28;20199;-47
2023/03/22 07:37:07;;;;;;;2.93;2.63;;;;;;;16.45;65.06;94425.22;5011511;28;20244;-48
2023/03/22 07:39:34;;;;;;;2.80;2.60;;;;;;;16.45;65.08;94426.97;4994443;28;20197;-47
2023/03/22 07:42:03;;;;;;;3.17;2.70;;;;;;;16.42;65.03;94428.16;4991844;28;20685;-47
2023/03/22 07:44:30;;;;;;;3.20;2.67;;;;;;;16.38;64.92;94434.66;4992830;28;20626;-46
2023/03/22 07:46:56;;;;;;;5.50;3.00;;;;;;;16.35;64.90;94435.00;5011133;28;20196;-49
2023/03/22 07:49:23;;;;;;;5.30;2.87;;;;;;;16.31;64.87;94438.91;4998831;28;20200;-56
2023/03/22 07:51:50;;;;;;;4.40;2.57;;;;;;;16.26;64.87;94444.63;4990629;28;20854;-48
2023/03/22 07:54:17;;;;;;;3.83;3.13;;;;;;;16.22;64.82;94438.22;4992094;28;20205;-46
2023/03/22 07:56:46;;;;;;;3.10;2.80;;;;;;;16.19;64.65;94437.75;5008264;28;20839;-46
2023/03/22 07:59:16;;;;;;;2.83;2.63;;;;;;;16.13;64.75;94444.44;5009504;28;20254;-48
2023/03/22 08:01:43;;;;;;;2.83;2.63;;;;;;;16.10;64.59;94442.22;5010414;28;20627;-48
2023/03/22 08:04:11;;;;;;;6.47;3.30;;;;;;;16.07;64.75;94436.63;5010611;28;20228;-47
2023/03/22 08:06:39;;;;;;;3.27;2.70;;;;;;;16.04;64.72;94448.88;5010653;28;20192;-48
2023/03/22 08:09:07;;;;;;;2.73;2.53;;;;;;;16.01;64.61;94446.66;5011393;28;20267;-46
2023/03/22 08:11:34;;;;;;;2.87;2.67;;;;;;;15.98;64.40;94436.72;5007456;28;20193;-46
2023/03/22 08:14:01;;;;;;;3.73;2.53;;;;;;;15.96;64.64;94448.97;4991601;28;20276;-46
2023/03/22 08:16:29;;;;;;;3.13;2.83;;;;;;;15.94;64.51;94445.78;4990807;28;20197;-48
2023/03/22 08:18:56;;;;;;;3.20;2.90;;;;;;;15.93;64.40;94449.34;4991020;28;20224;-46
2023/03/22 08:21:23;;;;;;;3.00;2.80;;;;;;;15.91;64.43;94447.91;4992123;28;20661;-46
2023/03/22 08:23:50;;;;;;;3.13;2.83;;;;;;;15.89;64.35;94452.41;4991289;28;20208;-48
2023/03/22 08:26:17;;;;;;;2.80;2.60;;;;;;;15.85;64.30;94452.00;4991010;28;20251;-48
2023/03/22 08:28:44;;;;;;;3.20;2.93;;;;;;;15.83;64.27;94453.13;4991123;28;20729;-48
2023/03/22 08:31:12;;;;;;;3.27;2.97;;;;;;;15.80;64.30;94451.69;4991818;28;20669;-47
2023/03/22 08:33:41;;;;;;;3.30;2.83;;;;;;;15.77;64.17;94455.44;4990762;28;20280;-48
2023/03/22 08:36:11;;;;;;;3.43;3.13;;;;;;;15.76;64.14;94450.47;4990885;28;20654;-47
2023/03/22 08:38:38;;;;;;;4.77;3.50;;;;;;;15.74;64.20;94453.22;4991103;28;20302;-48
2023/03/22 08:41:05;;;;;;;4.30;3.40;;;;;;;15.73;64.36;94461.13;4990910;28;20577;-48
2023/03/22 08:43:31;;;;;;;3.60;3.30;;;;;;;15.69;64.29;94450.34;4991934;28;20192;-47
2023/03/22 08:45:59;;;;;;;3.57;3.13;;;;;;;15.70;64.25;94457.09;4990493;28;20185;-48
2023/03/22 08:48:27;;;;;;;3.87;3.47;;;;;;;15.71;64.11;94463.06;4990432;28;20200;-47
2023/03/22 08:50:56;;;;;;;3.20;2.90;;;;;;;15.71;64.06;94463.84;4997648;28;20185;-47
2023/03/22 08:53:22;;;;;;;3.83;3.30;;;;;;;15.71;64.28;94463.84;4999830;28;20189;-47
2023/03/22 08:55:49;;;;;;;3.93;3.23;;;;;;;15.75;64.07;94469.47;4998416;28;20938;-48
2023/03/22 08:58:18;;;;;;;3.83;3.53;;;;;;;15.75;64.00;94462.53;4991212;28;20271;-48
2023/03/22 09:00:45;;;;;;;3.53;3.20;;;;;;;15.76;64.04;94474.47;4995023;28;20189;-46
2023/03/22 09:03:12;;;;;;;3.77;3.00;;;;;;;15.76;63.78;94466.75;5008765;28;20225;-48
2023/03/22 09:05:39;;;;;;;3.90;3.60;;;;;;;15.77;64.05;94476.06;4991513;28;20200;-47
2023/03/22 09:08:08;;;;;;;3.80;3.40;;;;;;;15.77;64.10;94472.69;4990039;28;20197;-48
2023/03/22 09:10:37;;;;;;;4.00;3.60;;;;;;;15.77;64.07;94475.28;4991017;28;20560;-48
2023/03/22 09:13:04;;;;;;;4.73;3.17;;;;;;;15.72;63.88;94465.50;4991957;28;20192;-47
2023/03/22 09:15:31;;;;;;;3.20;2.90;;;;;;;15.75;63.81;94472.84;5001890;28;20197;-48
2023/03/22 09:17:58;;;;;;;3.30;2.83;;;;;;;15.75;63.86;94470.28;4990320;28;20220;-46
2023/03/22 09:20:26;;;;;;;4.57;3.20;;;;;;;15.75;63.75;94474.63;4999829;28;20584;-48
2023/03/22 09:22:52;;;;;;;3.27;2.97;;;;;;;15.75;63.59;94477.22;5001148;28;20249;-47
2023/03/22 09:25:21;;;;;;;3.27;2.97;;;;;;;15.75;63.73;94475.44;5000330;28;20196;-47
2023/03/22 09:27:48;;;;;;;4.40;3.50;;;;;;;15.74;63.70;94473.84;5007930;28;20208;-46
2023/03/22 09:30:14;;;;;;;2.90;2.70;;;;;;;15.73;63.76;94479.19;4999006;28;20193;-48
2023/03/22 09:32:41;;;;;;;4.90;3.40;;;;;;;15.75;63.78;94477.22;5004693;28;20192;-49
2023/03/22 09:35:09;;;;;;;3.50;3.03;;;;;;;15.69;64.00;94476.13;5006051;28;20196;-48
2023/03/22 09:37:35;;;;;;;4.57;3.17;;;;;;;15.75;63.69;94472.84;4993276;28;20665;-50
2023/03/22 09:40:05;;;;;;;3.47;3.17;;;;;;;15.76;63.80;94478.84;4999644;28;20220;-48
2023/03/22 09:42:38;;;;;;;3.70;3.30;;;;;;;15.77;63.58;94473.50;4992038;28;20650;-48
2023/03/22 09:45:11;;;;;;;4.57;3.30;;;;;;;15.78;63.62;94474.28;4997323;28;20239;-49
2023/03/22 09:47:41;;;;;;;4.83;3.90;;;;;;;15.80;63.54;94475.72;5000122;28;20199;-48
2023/03/22 09:50:13;;;;;;;3.93;3.40;;;;;;;15.76;63.63;94464.16;4989254;28;20259;-48
2023/03/22 09:52:42;;;;;;;3.40;3.10;;;;;;;15.85;63.41;94471.81;4989384;28;20259;-48
2023/03/22 09:55:19;;;;;;;3.10;2.87;;;;;;;15.88;63.32;94469.66;4991634;28;20203;-50
2023/03/22 09:57:58;;;;;;;3.77;3.40;;;;;;;15.93;63.45;94474.31;4994858;28;20672;-48
2023/03/22 10:00:36;;;;;;;3.67;3.30;;;;;;;15.97;63.15;94473.78;4991991;28;20629;-47
2023/03/22 10:03:16;;;;;;;3.97;3.03;;;;;;;16.02;63.13;94475.84;5005584;28;20301;-47
2023/03/22 10:05:49;;;;;;;3.50;3.20;;;;;;;16.03;63.01;94475.66;5006937;28;20188;-47
2023/03/22 10:08:39;;;;;;;3.67;3.00;;;;;;;16.07;63.15;94475.31;4999420;28;20680;-48
2023/03/22 10:11:14;;;;;;;3.57;3.07;;;;;;;16.02;62.96;94476.66;4994647;28;20472;-46
2023/03/22 10:13:57;;;;;;;3.47;3.10;;;;;;;16.05;62.98;94489.19;5000630;28;20188;-47
2023/03/22 10:16:28;;;;;;;3.33;3.03;;;;;;;16.06;62.89;94482.22;4991479;28;20192;-48
2023/03/22 10:19:00;;;;;;;2.93;2.63;;;;;;;16.07;62.86;94489.03;4997944;28;21936;-47
2023/03/22 10:21:27;;;;;;;2.83;2.63;;;;;;;16.08;62.87;94492.41;4990244;28;20198;-48
2023/03/22 10:23:57;;;;;;;2.90;2.70;;;;;;;16.07;62.96;94480.47;4995361;28;20615;-48
2023/03/22 10:26:29;;;;;;;3.47;3.10;;;;;;;16.06;62.88;94484.81;5000306;28;20295;-48
2023/03/22 10:29:02;;;;;;;2.90;2.70;;;;;;;16.05;62.73;94486.59;5004951;28;20204;-46
2023/03/22 10:31:30;;;;;;;3.30;3.00;;;;;;;16.04;62.67;94485.00;5004956;28;20613;-47
2023/03/22 10:33:59;;;;;;;3.13;2.93;;;;;;;16.03;62.67;94485.97;5005499;28;20203;-47
2023/03/22 10:36:33;;;;;;;3.37;3.03;;;;;;;16.06;62.54;94487.41;5004695;28;20211;-49
2023/03/22 10:39:05;;;;;;;2.93;2.73;;;;;;;16.02;62.65;94486.97;5007483;28;20737;-48
2023/03/22 10:41:34;;;;;;;3.67;2.77;;;;;;;16.03;62.53;94485.97;4999259;28;20197;-48
2023/03/22 10:44:04;;;;;;;3.13;2.80;;;;;;;16.04;62.52;94490.16;4994333;28;20181;-47
2023/03/22 10:46:36;;;;;;;3.53;2.60;;;;;;;16.05;62.46;94484.00;4996269;28;20216;-46
2023/03/22 10:49:05;;;;;;;3.73;3.20;;;;;;;16.05;62.65;94478.84;4993010;28;20189;-48
2023/03/22 10:51:39;;;;;;;3.07;2.77;;;;;;;16.06;62.24;94482.22;4990162;28;20243;-48
2023/03/22 10:54:13;;;;;;;3.33;2.80;;;;;;;16.09;62.38;94486.25;4988187;28;20596;-48
2023/03/22 10:56:40;;;;;;;4.40;2.93;;;;;;;16.09;62.35;94484.47;4988141;28;20208;-47
2023/03/22 10:59:10;;;;;;;4.10;3.17;;;;;;;16.09;62.17;94483.66;4988502;28;20485;-48
2023/03/22 11:01:44;;;;;;;3.57;2.90;;;;;;;16.09;62.26;94478.50;4988728;28;20193;-48
2023/03/22 11:04:14;;;;;;;3.87;3.40;;;;;;;16.10;62.20;94480.09;5005303;28;20351;-47
2023/03/22 11:06:50;;;;;;;4.03;2.83;;;;;;;16.08;62.41;94476.91;5007140;28;20208;-47
2023/03/22 11:09:18;;;;;;;4.13;3.20;;;;;;;16.09;62.34;94478.50;5007305;28;20628;-47
2023/03/22 11:11:49;;;;;;;4.10;3.63;;;;;;;16.10;62.51;94480.09;5007628;28;20197;-48
2023/03/22 11:14:22;;;;;;;4.47;3.70;;;;;;;16.09;62.28;94481.88;5004955;28;20197;-48
2023/03/22 11:16:54;;;;;;;5.60;4.07;;;;;;;16.09;62.26;94484.47;4992875;28;20193;-48
2023/03/22 11:19:26;;;;;;;5.67;3.87;;;;;;;16.09;62.41;94478.50;4987677;28;20232;-47
2023/03/22 11:21:55;;;;;;;6.20;4.03;;;;;;;16.06;62.55;94482.22;4999087;28;20242;-47
2023/03/22 11:24:25;;;;;;;4.80;4.17;;;;;;;16.05;62.65;94481.44;5007270;28;20350;-46
2023/03/22 11:27:04;;;;;;;5.03;3.80;;;;;;;16.03;62.64;94473.09;5009634;28;20235;-48
2023/03/22 11:29:39;;;;;;;5.63;3.60;;;;;;;16.03;62.57;94474.88;5010983;28;20223;-49
2023/03/22 11:32:22;;;;;;;6.27;4.73;;;;;;;15.98;62.72;94467.66;5006034;28;20821;-47
2023/03/22 11:34:59;;;;;;;8.27;4.90;;;;;;;16.00;62.62;94470.84;5009940;28;20188;-49
2023/03/22 11:37:26;;;;;;;5.47;3.97;;;;;;;15.99;62.62;94469.25;5008305;28;20196;-48
2023/03/22 11:40:00;;;;;;;5.73;4.43;;;;;;;15.99;62.89;94460.72;4993910;28;20651;-47
2023/03/22 11:42:27;;;;;;;6.37;4.33;;;;;;;16.01;62.72;94469.88;4991307;28;20220;-48
2023/03/22 11:44:57;;;;;;;5.60;4.13;;;;;;;16.01;62.86;94464.72;5006529;28;20196;-47
2023/03/22 11:47:26;;;;;;;9.63;4.77;;;;;;;16.05;62.71;94465.16;5010638;28;20188;-48